Time;durP1;ratioP1;P1;durP2;ratioP2;P2;SDS_P1;SDS_P2;PMS_P1;PMS_P2;Temp;Humidity;BMP_temperature;BMP_pressure;BME280_temperature;BME280_humidity;BME280_pressure;Samples;Min_cycle;Max_cycle;Signal;HPM_P1;HPM_P2
2021/12/15 07:13:10;;;;;;;51.10;37.30;;;;;;;;;;6316692;22;97890;-84
2021/12/15 07:16:03;;;;;;;50.67;35.40;;;;;;;;;;6335346;22;97992;-83
2021/12/15 07:39:16;;;;;;;35.27;28.93;;;;;;;;;;6179300;22;98574;-84
2021/12/15 07:55:38;;;;;;;39.50;29.57;;;;;;;;;;6179993;22;99187;-84
2021/12/15 07:58:43;;;;;;;34.63;28.60;;;;;;;;;;6180156;22;98240;-84
2021/12/15 08:08:35;;;;;;;35.10;27.23;;;;;;;;;;6331891;22;98188;-83
2021/12/15 08:15:12;;;;;;;33.60;26.37;;;;;;;;;;6239377;22;98439;-83
2021/12/15 08:18:01;;;;;;;33.93;27.30;;;;;;;;;;6220310;22;97606;-83
2021/12/15 08:20:51;;;;;;;29.77;25.10;;;;;;;;;;6198071;22;97977;-84
2021/12/15 08:33:55;;;;;;;28.00;22.30;;;;;;;;;;6240089;22;98064;-85
2021/12/15 08:40:48;;;;;;;28.93;23.97;;;;;;;;;;6178282;22;98710;-84
2021/12/15 08:43:41;;;;;;;25.90;21.87;;;;;;;;;;6147999;22;98040;-84
2021/12/15 08:49:04;;;;;;;25.80;21.57;;;;;;;;;;6325084;22;98347;-84
2021/12/15 08:51:51;;;;;;;23.57;20.67;;;;;;;;;;6313547;22;97703;-84
2021/12/15 08:54:57;;;;;;;22.43;19.33;;;;;;;;;;6313299;22;98018;-84
2021/12/15 08:57:48;;;;;;;24.93;20.47;;;;;;;;;;6314530;22;98262;-83
2021/12/15 09:00:35;;;;;;;25.97;20.50;;;;;;;;;;6315269;22;97499;-83
2021/12/15 09:03:22;;;;;;;34.70;21.13;;;;;;;;;;6313945;22;97635;-84
2021/12/15 09:06:09;;;;;;;22.73;19.97;;;;;;;;;;6336041;22;98461;-83
2021/12/15 09:08:56;;;;;;;24.10;21.50;;;;;;;;;;6336306;22;98107;-82
2021/12/15 09:11:44;;;;;;;23.83;19.23;;;;;;;;;;6336235;22;97384;-84
2021/12/15 09:14:31;;;;;;;24.67;19.00;;;;;;;;;;6337054;22;97906;-84
2021/12/15 09:17:18;;;;;;;22.70;19.20;;;;;;;;;;6336184;22;97536;-84
2021/12/15 09:20:09;;;;;;;22.07;18.77;;;;;;;;;;6336609;22;98172;-82
2021/12/15 09:22:56;;;;;;;19.67;17.57;;;;;;;;;;6313637;22;98324;-82
2021/12/15 09:25:50;;;;;;;18.67;16.67;;;;;;;;;;6333585;22;98240;-82
2021/12/15 09:28:37;;;;;;;20.17;16.53;;;;;;;;;;6311916;22;98228;-83
2021/12/15 09:33:56;;;;;;;18.80;15.87;;;;;;;;;;6296786;22;99799;-84
2021/12/15 09:36:43;;;;;;;19.50;16.43;;;;;;;;;;6332419;22;97595;-84
2021/12/15 09:39:30;;;;;;;15.63;14.03;;;;;;;;;;6312469;22;98030;-83
2021/12/15 09:42:20;;;;;;;17.07;15.30;;;;;;;;;;6313025;22;98196;-82
2021/12/15 10:03:49;;;;;;;19.20;17.20;;;;;;;;;;6335055;22;97534;-84
2021/12/15 10:26:29;;;;;;;18.90;17.13;;;;;;;;;;6234701;22;99556;-85
2021/12/15 10:29:18;;;;;;;17.93;16.17;;;;;;;;;;6306845;22;98112;-85
2021/12/15 10:32:15;;;;;;;17.73;15.93;;;;;;;;;;6306586;22;98265;-85
2021/12/15 10:35:04;;;;;;;19.20;17.20;;;;;;;;;;6305717;22;98421;-85
2021/12/15 10:38:09;;;;;;;19.77;17.67;;;;;;;;;;6305457;22;98022;-85
2021/12/15 10:41:05;;;;;;;19.10;17.13;;;;;;;;;;6227926;22;99996;-84
2021/12/15 10:43:57;;;;;;;19.53;17.63;;;;;;;;;;6248136;22;97273;-84
2021/12/15 10:46:50;;;;;;;19.50;17.50;;;;;;;;;;6249096;22;98546;-84
2021/12/15 10:49:42;;;;;;;22.77;20.43;;;;;;;;;;6271358;22;98078;-84
2021/12/15 10:52:29;;;;;;;22.90;20.20;;;;;;;;;;6273637;22;98778;-84
2021/12/15 10:55:15;;;;;;;22.33;20.03;;;;;;;;;;6284035;22;99853;-86
2021/12/15 10:58:22;;;;;;;22.70;20.40;;;;;;;;;;6282826;22;98115;-83
2021/12/15 11:01:28;;;;;;;24.63;22.13;;;;;;;;;;6282718;22;98091;-83
2021/12/15 11:06:41;;;;;;;24.07;21.67;;;;;;;;;;6255897;22;100036;-83
2021/12/15 11:09:31;;;;;;;25.30;22.60;;;;;;;;;;6332614;22;98216;-82
2021/12/15 11:12:21;;;;;;;24.77;22.03;;;;;;;;;;6333657;22;98825;-83
2021/12/15 11:15:08;;;;;;;27.43;24.63;;;;;;;;;;6334979;22;98059;-82
2021/12/15 11:17:56;;;;;;;26.40;23.60;;;;;;;;;;6316256;22;97539;-82
2021/12/15 11:23:17;;;;;;;26.07;23.37;;;;;;;;;;6256600;22;99944;-85
2021/12/15 11:26:05;;;;;;;27.43;24.47;;;;;;;;;;6283785;22;97516;-86
2021/12/15 11:28:55;;;;;;;27.73;24.17;;;;;;;;;;6281822;22;98259;-84
2021/12/15 11:31:42;;;;;;;30.10;26.90;;;;;;;;;;6281289;22;97975;-83
2021/12/15 11:34:34;;;;;;;32.77;27.00;;;;;;;;;;6282754;22;97750;-84
2021/12/15 11:37:41;;;;;;;32.97;29.20;;;;;;;;;;6282419;22;97988;-84
2021/12/15 11:45:42;;;;;;;33.53;29.20;;;;;;;;;;6254102;22;99826;-84
2021/12/15 11:48:32;;;;;;;34.37;29.13;;;;;;;;;;6270787;22;98893;-83
2021/12/15 11:59:18;;;;;;;35.70;31.27;;;;;;;;;;6260093;22;99466;-82
2021/12/15 12:02:09;;;;;;;32.93;29.30;;;;;;;;;;6274310;22;98088;-83
2021/12/15 12:05:09;;;;;;;35.20;29.77;;;;;;;;;;6251662;22;97626;-83
2021/12/15 12:07:58;;;;;;;34.03;29.70;;;;;;;;;;6274101;22;97529;-84
2021/12/15 12:10:50;;;;;;;32.60;29.20;;;;;;;;;;6249402;22;98217;-81
2021/12/15 12:13:40;;;;;;;30.10;26.80;;;;;;;;;;6249568;22;97473;-80
2021/12/15 12:16:29;;;;;;;31.80;27.37;;;;;;;;;;6271829;22;99660;-83
2021/12/15 12:19:15;;;;;;;31.43;27.67;;;;;;;;;;6250456;22;98734;-82
2021/12/15 12:27:26;;;;;;;29.73;26.63;;;;;;;;;;6273266;22;99906;-85
2021/12/15 12:30:15;;;;;;;29.80;26.80;;;;;;;;;;6304685;22;98264;-85
2021/12/15 13:16:23;;;;;;;29.50;26.73;;;;;;;;;;6226895;22;100182;-87
2021/12/15 13:42:13;;;;;;;27.20;24.60;;;;;;;;;;6266957;22;100441;-85
2021/12/15 13:45:04;;;;;;;28.40;25.60;;;;;;;;;;6313203;22;98929;-86
2021/12/15 14:39:59;;;;;;;44.10;37.10;;;;;;;;;;6291015;22;100577;-84
2021/12/15 14:45:22;;;;;;;39.90;35.63;;;;;;;;;;6280792;22;100579;-85
2021/12/15 14:51:08;;;;;;;42.40;37.40;;;;;;;;;;6280003;22;99084;-86
2021/12/15 15:04:25;;;;;;;43.73;37.40;;;;;;;;;;6272958;22;99799;-83
